Time;durP1;ratioP1;P1;durP2;ratioP2;P2;SDS_P1;SDS_P2;PMS_P1;PMS_P2;Temp;Humidity;BMP_temperature;BMP_pressure;BME280_temperature;BME280_humidity;BME280_pressure;Samples;Min_cycle;Max_cycle;Signal;HPM_P1;HPM_P2
2021/04/22 00:00:20;;;;;;;22.70;8.20;;;;;;;7.74;63.23;99973.95;115981;1200;27278;-84
2021/04/22 00:03:09;;;;;;;27.37;9.87;;;;;;;7.75;63.39;99974.73;115970;1199;23134;-83
2021/04/22 00:05:40;;;;;;;24.50;8.90;;;;;;;7.78;63.45;99974.55;116060;1199;23117;-83
2021/04/22 00:08:10;;;;;;;26.20;9.20;;;;;;;7.80;63.46;99963.00;116171;1199;27867;-83
2021/04/22 00:10:41;;;;;;;25.10;9.93;;;;;;;7.82;63.43;99969.61;116122;1198;23115;-83
2021/04/22 00:13:10;;;;;;;28.50;10.90;;;;;;;7.85;63.52;99967.91;116047;1200;23142;-83
2021/04/22 00:15:39;;;;;;;24.27;10.60;;;;;;;7.86;63.43;99969.47;116199;1197;23222;-83
2021/04/22 00:18:09;;;;;;;26.27;8.70;;;;;;;7.87;63.69;99962.66;116055;1199;26341;-83
2021/04/22 00:20:38;;;;;;;23.17;9.23;;;;;;;7.88;63.74;99962.17;116137;1200;24274;-83
2021/04/22 00:23:08;;;;;;;27.73;11.10;;;;;;;7.87;63.81;99963.43;116224;1199;23084;-83
2021/04/22 00:25:36;;;;;;;30.80;10.77;;;;;;;7.90;63.96;99967.29;116347;1200;23106;-85
2021/04/22 00:28:06;;;;;;;27.30;9.85;;;;;;;7.90;64.04;99970.07;116154;1199;23124;-83
2021/04/22 00:30:35;;;;;;;31.25;11.75;;;;;;;7.89;64.02;99968.52;116119;1200;23124;-83
2021/04/22 00:33:04;;;;;;;32.90;9.95;;;;;;;7.91;64.09;99966.04;116177;1199;24768;-82
2021/04/22 00:35:33;;;;;;;28.37;11.73;;;;;;;7.92;64.15;99975.93;116007;1199;24807;-83
2021/04/22 00:38:01;;;;;;;29.50;11.80;;;;;;;7.92;64.23;99975.93;116075;1200;23134;-83
2021/04/22 00:40:30;;;;;;;26.13;11.73;;;;;;;7.94;64.46;99970.67;116112;1200;23600;-83
2021/04/22 00:43:01;;;;;;;26.67;11.73;;;;;;;7.95;64.46;99986.09;116046;1199;26054;-83
2021/04/22 00:45:29;;;;;;;24.60;9.60;;;;;;;7.95;64.52;99978.53;116108;1199;23144;-83
2021/04/22 00:47:58;;;;;;;25.93;10.83;;;;;;;7.96;64.58;99977.31;116096;1199;23786;-82
2021/04/22 00:50:28;;;;;;;29.70;11.20;;;;;;;7.97;64.53;99975.28;116048;1200;23119;-83
2021/04/22 00:52:59;;;;;;;29.70;9.00;;;;;;;7.97;64.69;99976.06;116071;1200;23263;-82
2021/04/22 00:55:29;;;;;;;28.87;11.07;;;;;;;7.98;64.60;99985.17;116050;1199;23135;-83
2021/04/22 00:57:58;;;;;;;28.40;10.25;;;;;;;7.97;64.93;99983.63;116101;1199;23205;-82
2021/04/22 01:00:30;;;;;;;28.27;9.70;;;;;;;7.96;64.97;99990.44;116217;1200;23779;-82
2021/04/22 01:02:59;;;;;;;24.97;9.50;;;;;;;7.95;65.05;99994.44;116058;1199;24395;-83
2021/04/22 01:05:32;;;;;;;27.00;10.55;;;;;;;7.95;65.32;100006.33;116169;1198;23898;-82
2021/04/22 01:08:01;;;;;;;25.73;10.50;;;;;;;7.96;65.42;100004.33;116034;1199;23128;-82
2021/04/22 01:10:30;;;;;;;27.30;11.07;;;;;;;7.97;65.60;99997.52;115998;1199;24796;-82
2021/04/22 01:12:59;;;;;;;24.00;8.80;;;;;;;7.98;65.61;100007.41;116050;1199;23324;-83
2021/04/22 01:15:30;;;;;;;25.85;10.45;;;;;;;8.00;65.63;100010.50;116125;1199;25987;-82
2021/04/22 01:17:59;;;;;;;26.45;9.95;;;;;;;8.01;65.72;100014.80;116184;1200;26294;-83
2021/04/22 01:20:30;;;;;;;28.40;11.20;;;;;;;8.03;66.03;100020.67;116253;1200;23144;-82
2021/04/22 01:23:00;;;;;;;29.57;9.63;;;;;;;8.04;66.10;100022.23;116172;1198;24795;-83
2021/04/22 01:25:31;;;;;;;23.23;8.90;;;;;;;8.05;66.44;100020.97;116225;1200;23666;-82
2021/04/22 01:28:01;;;;;;;24.73;10.73;;;;;;;8.07;66.60;100027.61;116253;1199;26255;-82
2021/04/22 01:30:33;;;;;;;34.63;11.50;;;;;;;8.08;67.27;100015.27;116091;1199;23269;-83
2021/04/22 01:33:02;;;;;;;27.60;10.90;;;;;;;8.08;67.08;100022.83;116138;1200;23118;-82
2021/04/22 01:35:36;;;;;;;28.90;10.48;;;;;;;8.08;67.32;100026.39;116018;1200;23118;-82
2021/04/22 01:38:05;;;;;;;27.00;11.00;;;;;;;8.08;67.45;100022.83;116060;1199;23128;-83
2021/04/22 01:40:34;;;;;;;25.00;11.85;;;;;;;8.08;67.73;100031.17;116015;1199;23259;-82
2021/04/22 01:43:04;;;;;;;27.40;11.20;;;;;;;8.09;67.92;100043.81;116084;1200;27278;-82
2021/04/22 01:45:33;;;;;;;27.20;10.33;;;;;;;8.10;69.04;100042.59;115968;1199;23771;-82
2021/04/22 01:48:03;;;;;;;33.27;13.53;;;;;;;8.11;69.16;100042.13;116080;1200;23199;-82
2021/04/22 01:50:33;;;;;;;39.65;14.80;;;;;;;8.09;69.90;100039.03;116087;1200;23224;-84
2021/04/22 01:53:02;;;;;;;25.27;10.17;;;;;;;8.06;71.80;100053.11;116651;1200;23115;-84
2021/04/22 01:55:34;;;;;;;37.00;13.80;;;;;;;7.99;70.62;100058.98;116189;1199;23121;-84
2021/04/22 01:58:04;;;;;;;37.60;14.47;;;;;;;7.94;71.30;100062.40;116091;1200;23092;-81
2021/04/22 02:00:34;;;;;;;47.15;17.58;;;;;;;7.89;71.15;100058.23;115985;1198;23266;-81
2021/04/22 02:03:03;;;;;;;50.37;18.27;;;;;;;7.85;71.72;100054.84;115950;1199;27467;-81
2021/04/22 02:05:32;;;;;;;50.20;17.75;;;;;;;7.79;71.99;100045.59;115953;1199;23121;-81
2021/04/22 02:08:00;;;;;;;47.10;18.00;;;;;;;7.79;71.86;100042.03;115839;1199;23132;-82
2021/04/22 02:10:29;;;;;;;52.80;17.70;;;;;;;7.77;72.01;100047.28;116001;1199;26361;-82
2021/04/22 02:12:58;;;;;;;49.15;17.40;;;;;;;7.77;72.36;100044.50;115957;1200;23126;-82
2021/04/22 02:15:28;;;;;;;46.50;19.47;;;;;;;7.76;72.48;100056.87;115974;1200;27217;-82
2021/04/22 02:17:58;;;;;;;41.60;16.07;;;;;;;7.76;72.55;100042.97;116150;1199;23825;-82
2021/04/22 02:20:27;;;;;;;38.58;14.70;;;;;;;7.76;73.13;100054.09;116084;1200;23124;-82
2021/04/22 02:22:57;;;;;;;30.80;12.30;;;;;;;7.75;73.52;100071.98;115887;1199;23126;-82
2021/04/22 02:25:28;;;;;;;31.50;12.85;;;;;;;7.73;73.81;100071.67;115989;1199;26025;-85
2021/04/22 02:27:58;;;;;;;30.90;12.30;;;;;;;7.71;74.42;100066.59;116551;1200;23154;-83
2021/04/22 02:30:29;;;;;;;28.47;12.10;;;;;;;7.71;74.36;100072.15;116278;1199;26240;-82
2021/04/22 02:32:59;;;;;;;27.10;11.67;;;;;;;7.72;74.63;100078.45;116055;1199;27142;-82
2021/04/22 02:35:30;;;;;;;29.30;12.75;;;;;;;7.70;74.42;100070.59;116065;1200;23112;-82
2021/04/22 02:38:00;;;;;;;32.00;14.30;;;;;;;7.69;74.71;100079.39;116053;1199;23606;-82
2021/04/22 02:40:30;;;;;;;35.95;14.00;;;;;;;7.68;74.91;100075.06;116031;1203;23140;-82
2021/04/22 02:43:01;;;;;;;23.80;10.80;;;;;;;7.65;76.15;100073.22;115955;1199;23135;-81
2021/04/22 02:45:32;;;;;;;24.90;11.10;;;;;;;7.61;75.55;100076.16;116062;1199;24724;-82
2021/04/22 02:48:02;;;;;;;24.30;10.27;;;;;;;7.56;75.87;100073.98;116101;1199;23118;-82
2021/04/22 02:50:31;;;;;;;;;;;;;;;7.50;76.12;100089.73;116037;1206;26939;-82
2021/04/22 02:52:59;;;;;;;23.65;9.40;;;;;;;7.43;75.21;100078.91;115992;1200;22843;-82
2021/04/22 02:55:27;;;;;;;24.03;9.73;;;;;;;7.40;75.21;100081.84;116102;1199;23124;-83
2021/04/22 02:57:56;;;;;;;21.90;9.20;;;;;;;7.38;75.50;100079.54;116144;1199;23165;-82
2021/04/22 03:00:25;;;;;;;26.85;10.05;;;;;;;7.34;75.07;100090.77;115947;1199;23143;-83
2021/04/22 03:02:53;;;;;;;25.93;10.00;;;;;;;7.30;75.06;100092.93;115973;1200;23119;-83
2021/04/22 03:05:22;;;;;;;22.33;10.07;;;;;;;7.28;75.26;100098.17;116150;1199;28786;-83
2021/04/22 03:07:51;;;;;;;24.43;8.63;;;;;;;7.25;75.41;100095.55;116026;1199;28563;-83
2021/04/22 03:10:22;;;;;;;20.07;8.53;;;;;;;7.20;75.25;100088.59;115997;1200;27225;-83
2021/04/22 03:12:50;;;;;;;23.80;8.50;;;;;;;7.18;75.22;100099.39;116112;1199;24754;-83
2021/04/22 03:15:19;;;;;;;23.60;8.70;;;;;;;7.16;75.19;100103.84;116063;1200;26300;-83
2021/04/22 03:17:48;;;;;;;24.03;7.67;;;;;;;7.15;74.99;100107.88;116088;1200;23292;-83
2021/04/22 03:20:19;;;;;;;22.40;7.30;;;;;;;7.11;75.00;100107.25;116168;1199;24529;-83
2021/04/22 03:22:48;;;;;;;22.40;8.00;;;;;;;7.08;75.08;100117.26;115959;1200;26179;-83
2021/04/22 03:25:19;;;;;;;21.50;6.80;;;;;;;7.05;75.11;100125.73;116215;1200;23140;-83
2021/04/22 03:27:47;;;;;;;22.20;6.50;;;;;;;7.03;75.14;100130.97;116104;1200;23186;-83
2021/04/22 03:30:18;;;;;;;21.50;7.70;;;;;;;7.01;75.39;100133.43;116023;1199;23112;-84
2021/04/22 03:32:46;;;;;;;22.20;7.15;;;;;;;7.00;75.44;100140.20;116065;1203;25975;-83
2021/04/22 03:35:15;;;;;;;16.83;6.57;;;;;;;6.98;75.67;100143.44;116114;1200;23124;-83
2021/04/22 03:37:43;;;;;;;24.10;6.25;;;;;;;6.95;75.50;100144.34;116100;1199;23219;-83
2021/04/22 03:40:15;;;;;;;18.75;5.40;;;;;;;6.93;75.15;100144.02;115961;1199;23135;-83
2021/04/22 03:42:43;;;;;;;16.37;4.30;;;;;;;6.89;75.38;100148.94;116031;1200;23362;-82
2021/04/22 03:45:14;;;;;;;19.00;5.10;;;;;;;6.85;75.01;100153.86;115968;1199;23134;-82
2021/04/22 03:47:43;;;;;;;15.65;4.30;;;;;;;6.82;75.10;100154.00;116201;1199;23149;-82
2021/04/22 03:50:15;;;;;;;19.90;5.10;;;;;;;6.79;75.00;100144.59;116232;1199;23148;-82
2021/04/22 03:52:44;;;;;;;16.75;5.35;;;;;;;6.74;75.24;100155.52;116239;1199;27252;-82
2021/04/22 03:55:14;;;;;;;16.33;4.47;;;;;;;6.71;75.37;100161.95;116013;1199;23111;-82
2021/04/22 03:57:42;;;;;;;12.03;2.93;;;;;;;6.68;75.50;100177.53;116012;1202;27225;-82
2021/04/22 04:00:15;;;;;;;13.27;3.50;;;;;;;6.65;75.74;100172.88;115946;1199;23179;-82
2021/04/22 04:02:44;;;;;;;21.70;3.83;;;;;;;6.62;74.81;100181.34;116077;1199;27377;-82
2021/04/22 04:05:13;;;;;;;14.10;2.57;;;;;;;6.58;75.08;100180.70;116075;1200;26246;-83
2021/04/22 04:07:41;;;;;;;15.20;2.50;;;;;;;6.56;74.81;100188.70;115849;1200;23141;-82
2021/04/22 04:10:11;;;;;;;11.57;2.33;;;;;;;6.52;74.53;100191.59;116061;1199;23121;-82
2021/04/22 04:12:40;;;;;;;10.75;1.73;;;;;;;6.51;73.47;100201.15;116220;1203;23124;-83
2021/04/22 04:15:11;;;;;;;15.25;1.75;;;;;;;6.50;73.75;100194.05;116279;1200;26018;-83
2021/04/22 04:17:41;;;;;;;13.65;1.70;;;;;;;6.48;73.27;100200.05;116208;1199;23120;-80
2021/04/22 04:20:12;;;;;;;10.35;1.10;;;;;;;6.47;73.15;100208.83;115958;1200;23154;-80
2021/04/22 04:22:41;;;;;;;8.20;1.20;;;;;;;6.43;72.89;100211.70;116012;1199;23115;-80
2021/04/22 04:25:13;;;;;;;12.17;1.43;;;;;;;6.40;72.89;100209.08;116037;1199;26045;-80
2021/04/22 04:27:41;;;;;;;11.13;1.37;;;;;;;6.39;72.77;100226.95;115963;1199;23115;-80
2021/04/22 04:30:15;;;;;;;13.05;1.70;;;;;;;6.35;73.00;100221.52;116036;1199;26239;-80
2021/04/22 04:32:44;;;;;;;13.87;1.53;;;;;;;6.31;73.21;100231.20;115863;1200;23128;-80
2021/04/22 04:35:14;;;;;;;8.75;1.10;;;;;;;6.26;70.34;100249.19;115614;1200;23183;-81
2021/04/22 04:37:43;;;;;;;11.40;1.00;;;;;;;6.17;69.93;100238.00;115989;1200;26890;-80
2021/04/22 04:40:15;;;;;;;8.53;0.90;;;;;;;6.10;68.35;100251.34;115666;1199;23223;-80
2021/04/22 04:42:44;;;;;;;10.70;0.60;;;;;;;6.01;68.55;100259.56;115774;1200;26019;-79
2021/04/22 04:45:15;;;;;;;8.15;0.80;;;;;;;5.92;68.42;100256.72;115647;1199;26711;-79
2021/04/22 04:47:44;;;;;;;7.25;0.70;;;;;;;5.84;67.82;100266.47;115843;1200;23161;-80
2021/04/22 04:50:15;;;;;;;4.10;0.60;;;;;;;5.77;69.10;100267.47;115781;1199;23728;-79
2021/04/22 04:52:43;;;;;;;8.45;1.10;;;;;;;5.74;70.26;100277.44;115790;1200;23114;-80
2021/04/22 04:55:15;;;;;;;8.80;0.65;;;;;;;5.72;69.63;100282.66;115567;1200;23155;-81
2021/04/22 04:57:43;;;;;;;8.67;0.80;;;;;;;5.70;68.48;100289.84;115609;1203;23178;-81
2021/04/22 05:00:15;;;;;;;12.10;1.20;;;;;;;5.67;67.96;100293.49;115567;1199;23124;-80
2021/04/22 05:02:43;;;;;;;10.30;0.73;;;;;;;5.62;65.60;100291.30;115837;1200;23117;-81
2021/04/22 05:05:14;;;;;;;10.30;0.70;;;;;;;5.57;66.18;100300.15;116100;1199;23128;-81
2021/04/22 05:07:42;;;;;;;7.83;0.75;;;;;;;5.51;66.69;100299.94;116059;1200;23137;-81
2021/04/22 05:10:13;;;;;;;8.20;0.80;;;;;;;5.47;67.58;100298.49;115895;1200;23186;-82
2021/04/22 05:12:40;;;;;;;;;;;;;;;5.45;67.56;100295.39;116128;1206;23137;-82
2021/04/22 05:15:11;;;;;;;11.15;1.00;;;;;;;5.43;67.84;100303.36;115884;1200;21610;-81
2021/04/22 05:17:39;;;;;;;;;;;;;;;5.39;67.25;100303.48;115956;1200;23115;-81
2021/04/22 05:20:09;;;;;;;6.10;0.80;;;;;;;5.35;66.63;100313.89;116025;1200;21603;-81
2021/04/22 05:22:37;;;;;;;9.00;1.00;;;;;;;5.32;67.25;100322.28;115939;1200;26243;-82
2021/04/22 05:25:08;;;;;;;11.10;1.55;;;;;;;5.29;66.37;100314.88;116008;1199;24937;-81
2021/04/22 05:27:37;;;;;;;7.50;1.17;;;;;;;5.25;66.98;100326.06;115922;1200;23200;-81
2021/04/22 05:30:07;;;;;;;14.00;1.00;;;;;;;5.22;66.92;100332.47;115900;1199;23138;-81
2021/04/22 05:32:36;;;;;;;11.03;1.10;;;;;;;5.19;64.98;100336.13;116061;1199;23287;-81
2021/04/22 05:35:06;;;;;;;15.75;1.40;;;;;;;5.15;65.86;100341.00;115995;1199;27402;-81
2021/04/22 05:37:34;;;;;;;12.05;1.00;;;;;;;5.13;64.61;100350.95;116105;1199;23585;-80
2021/04/22 05:40:02;;;;;;;12.25;0.90;;;;;;;5.05;65.07;100363.44;115866;1199;24302;-81
2021/04/22 05:42:31;;;;;;;16.20;2.35;;;;;;;4.99;65.52;100346.58;115880;1199;23176;-81
2021/04/22 05:44:59;;;;;;;10.60;0.90;;;;;;;4.99;66.47;100349.34;115774;1200;23397;-81
2021/04/22 05:47:28;;;;;;;13.43;1.00;;;;;;;5.01;66.14;100362.77;115941;1199;23135;-81
2021/04/22 05:49:59;;;;;;;13.40;1.40;;;;;;;5.00;64.92;100381.34;116017;1202;23202;-80
2021/04/22 05:52:27;;;;;;;12.13;1.10;;;;;;;4.99;65.63;100357.64;116085;1199;23146;-81
2021/04/22 05:54:56;;;;;;;12.77;1.73;;;;;;;5.00;65.73;100359.21;115966;1199;23617;-81
2021/04/22 05:57:24;;;;;;;16.50;1.40;;;;;;;5.04;65.78;100364.64;115941;1199;23115;-81
2021/04/22 05:59:52;;;;;;;16.75;2.15;;;;;;;5.07;64.93;100366.54;116023;1200;23164;-82
2021/04/22 06:02:21;;;;;;;11.20;1.30;;;;;;;5.09;64.26;100381.47;116210;1200;26242;-82
2021/04/22 06:04:50;;;;;;;14.70;1.20;;;;;;;5.10;63.38;100366.43;116116;1199;23115;-80
2021/04/22 06:07:18;;;;;;;13.93;1.27;;;;;;;5.13;64.04;100373.84;115648;1199;23144;-80
2021/04/22 06:09:47;;;;;;;8.30;1.07;;;;;;;5.18;64.17;100362.24;115998;1199;23506;-80
2021/04/22 06:12:15;;;;;;;14.45;1.30;;;;;;;5.23;63.98;100369.23;116070;1199;23122;-80
2021/04/22 06:14:44;;;;;;;15.40;1.30;;;;;;;5.30;63.56;100382.84;116043;1199;23107;-79
2021/04/22 06:17:12;;;;;;;17.63;2.33;;;;;;;5.34;62.10;100376.00;115932;1199;23163;-81
2021/04/22 06:19:41;;;;;;;9.70;1.15;;;;;;;5.27;61.44;100395.59;115884;1199;27308;-80
2021/04/22 06:22:10;;;;;;;17.40;1.50;;;;;;;5.15;61.45;100374.20;116122;1200;23383;-80
2021/04/22 06:24:38;;;;;;;17.15;1.50;;;;;;;5.15;61.96;100387.26;116067;1200;23189;-79
2021/04/22 06:27:07;;;;;;;9.80;1.70;;;;;;;5.16;61.64;100392.34;115925;1199;23713;-80
2021/04/22 06:29:35;;;;;;;18.20;2.30;;;;;;;5.19;62.30;100388.72;115980;1199;26291;-81
2021/04/22 06:32:04;;;;;;;14.43;1.50;;;;;;;5.25;61.77;100392.49;115937;1200;23191;-82
2021/04/22 06:34:33;;;;;;;15.53;1.80;;;;;;;5.31;61.88;100407.34;115961;1199;23215;-81
2021/04/22 06:37:02;;;;;;;15.20;1.60;;;;;;;5.34;60.81;100427.84;116058;1200;23137;-81
2021/04/22 06:39:32;;;;;;;7.50;1.20;;;;;;;5.37;61.23;100405.58;116064;1200;23111;-81
2021/04/22 06:42:01;;;;;;;14.40;1.70;;;;;;;5.39;60.52;100416.20;116117;1199;23347;-81
2021/04/22 06:44:29;;;;;;;10.40;1.50;;;;;;;5.38;59.94;100423.73;116129;1199;23117;-81
2021/04/22 06:46:59;;;;;;;15.00;2.00;;;;;;;5.38;59.98;100422.98;116112;1199;23260;-81
2021/04/22 06:49:28;;;;;;;21.00;1.40;;;;;;;5.41;60.54;100428.41;116016;1203;23121;-81
2021/04/22 06:51:59;;;;;;;15.60;1.55;;;;;;;5.45;60.08;100423.54;115974;1200;25987;-82
2021/04/22 06:54:27;;;;;;;12.20;1.30;;;;;;;5.50;59.58;100416.69;115961;1199;23150;-81
2021/04/22 06:56:56;;;;;;;13.10;1.90;;;;;;;5.60;59.97;100415.59;116073;1198;24760;-82
2021/04/22 06:59:25;;;;;;;14.35;1.65;;;;;;;5.67;60.17;100423.67;116049;1199;23162;-82
2021/04/22 07:01:54;;;;;;;11.10;1.73;;;;;;;5.68;59.69;100420.48;116457;1199;23117;-81
2021/04/22 07:04:22;;;;;;;14.30;1.60;;;;;;;5.67;58.67;100427.22;116217;1198;23138;-81
2021/04/22 07:06:51;;;;;;;19.20;1.80;;;;;;;5.62;59.43;100432.55;116177;1199;24883;-79
2021/04/22 07:09:20;;;;;;;27.40;1.90;;;;;;;5.56;59.22;100432.32;116084;1199;23123;-80
2021/04/22 07:11:48;;;;;;;13.27;1.63;;;;;;;5.56;59.16;100435.09;115973;1200;23144;-80
2021/04/22 07:14:16;;;;;;;14.67;1.97;;;;;;;5.60;58.23;100441.30;115963;1199;26342;-80
2021/04/22 07:16:45;;;;;;;19.50;2.13;;;;;;;5.62;58.56;100447.17;115658;1199;23253;-80
2021/04/22 07:19:14;;;;;;;20.15;1.90;;;;;;;5.72;59.25;100436.98;115605;1200;23600;-79
2021/04/22 07:21:42;;;;;;;10.00;1.50;;;;;;;5.79;57.97;100447.87;115639;1200;23127;-79
2021/04/22 07:24:11;;;;;;;21.43;2.47;;;;;;;5.82;58.64;100435.89;115562;1200;24776;-80
2021/04/22 07:26:40;;;;;;;14.90;2.10;;;;;;;5.87;58.07;100446.46;115606;1199;23122;-79
2021/04/22 07:29:09;;;;;;;16.10;1.97;;;;;;;5.97;58.22;100450.11;115731;1199;23304;-78
2021/04/22 07:31:37;;;;;;;11.55;1.75;;;;;;;6.10;56.20;100456.45;115624;1199;23114;-79
2021/04/22 07:34:06;;;;;;;16.35;1.40;;;;;;;6.10;57.14;100454.46;115630;1200;23115;-80
2021/04/22 07:36:36;;;;;;;12.70;1.40;;;;;;;6.03;57.00;100459.42;115630;1200;24759;-79
2021/04/22 07:39:05;;;;;;;11.97;2.10;;;;;;;6.01;57.48;100465.42;115706;1199;23128;-80
2021/04/22 07:41:34;;;;;;;11.80;1.60;;;;;;;6.12;57.96;100459.55;115658;1203;24934;-80
2021/04/22 07:44:03;;;;;;;12.65;1.60;;;;;;;6.19;56.96;100465.64;115911;1199;24747;-80
2021/04/22 07:46:32;;;;;;;16.50;1.85;;;;;;;6.22;57.10;100475.07;115831;1200;23124;-81
2021/04/22 07:49:01;;;;;;;17.50;1.70;;;;;;;6.24;57.01;100467.87;115974;1199;24778;-80
2021/04/22 07:51:30;;;;;;;11.80;1.65;;;;;;;6.32;57.25;100462.86;116074;1199;23278;-80
2021/04/22 07:53:59;;;;;;;12.25;1.80;;;;;;;6.38;56.60;100463.86;115684;1200;23286;-80
2021/04/22 07:56:28;;;;;;;12.10;1.50;;;;;;;6.38;56.20;100466.63;116056;1199;23146;-80
2021/04/22 07:58:56;;;;;;;12.77;1.47;;;;;;;6.34;56.09;100477.84;115967;1199;23253;-81
2021/04/22 08:01:25;;;;;;;13.33;1.60;;;;;;;6.34;55.22;100469.52;116089;1199;23810;-81
2021/04/22 08:03:54;;;;;;;15.23;1.50;;;;;;;6.36;55.79;100469.07;116114;1202;23137;-81
2021/04/22 08:06:22;;;;;;;22.70;2.00;;;;;;;6.36;56.38;100475.40;115909;1200;23180;-81
2021/04/22 08:08:51;;;;;;;13.20;1.40;;;;;;;6.31;56.15;100486.28;115992;1199;23124;-81
2021/04/22 08:11:20;;;;;;;18.17;2.70;;;;;;;6.36;56.54;100480.16;116072;1199;27255;-80
2021/04/22 08:13:49;;;;;;;11.55;1.80;;;;;;;6.45;56.20;100481.06;115974;1202;23222;-80
2021/04/22 08:16:18;;;;;;;11.10;1.50;;;;;;;6.53;56.75;100476.05;115959;1200;23144;-80
2021/04/22 08:18:46;;;;;;;16.57;1.50;;;;;;;6.58;56.04;100474.72;115874;1199;23192;-82
2021/04/22 08:21:15;;;;;;;10.40;1.60;;;;;;;6.52;56.14;100466.16;115962;1198;23147;-82
2021/04/22 08:23:45;;;;;;;13.83;1.83;;;;;;;6.52;56.32;100475.27;115995;1199;23115;-80
2021/04/22 08:26:17;;;;;;;13.67;2.17;;;;;;;6.56;56.55;100474.39;115956;1199;23286;-81
2021/04/22 08:28:47;;;;;;;13.43;2.03;;;;;;;6.65;56.92;100472.48;115829;1199;23098;-80
2021/04/22 08:31:22;;;;;;;12.27;1.57;;;;;;;6.69;55.89;100466.80;115933;1200;26143;-80
2021/04/22 08:33:53;;;;;;;13.20;2.00;;;;;;;6.66;55.57;100468.49;116244;1199;23124;-80
2021/04/22 08:36:23;;;;;;;12.17;1.60;;;;;;;6.70;56.07;100473.91;116064;1199;25072;-81
2021/04/22 08:38:52;;;;;;;13.00;1.65;;;;;;;6.70;54.63;100465.59;115925;1203;23114;-80
2021/04/22 08:41:21;;;;;;;11.70;1.30;;;;;;;6.66;55.87;100459.39;116077;1200;23098;-80
2021/04/22 08:43:50;;;;;;;11.75;1.55;;;;;;;6.75;55.62;100465.80;115852;1199;23195;-80
2021/04/22 08:46:21;;;;;;;14.30;1.67;;;;;;;6.83;55.44;100460.80;116011;1199;23114;-80
2021/04/22 08:48:49;;;;;;;;;;;;;;;6.96;55.38;100455.97;115910;1206;23114;-80
2021/04/22 08:51:17;;;;;;;10.20;1.27;;;;;;;7.08;55.81;100458.70;116019;1199;21604;-80
2021/04/22 08:53:48;;;;;;;14.90;3.10;;;;;;;7.12;55.43;100464.91;116017;1200;23118;-80
2021/04/22 08:56:18;;;;;;;14.75;2.15;;;;;;;7.22;55.54;100460.97;116203;1200;27294;-80
2021/04/22 08:58:47;;;;;;;13.05;2.00;;;;;;;7.31;54.59;100466.61;116047;1199;23214;-80
2021/04/22 09:01:18;;;;;;;12.93;1.80;;;;;;;7.37;54.49;100466.80;116105;1200;23168;-80
2021/04/22 09:03:48;;;;;;;16.70;2.03;;;;;;;7.39;54.51;100464.34;116014;1199;23266;-80
2021/04/22 09:06:16;;;;;;;16.43;2.50;;;;;;;7.39;54.69;100466.36;115763;1200;23248;-80
2021/04/22 09:08:47;;;;;;;12.60;1.97;;;;;;;7.45;55.22;100470.11;115516;1202;26115;-80
2021/04/22 09:11:18;;;;;;;13.78;1.75;;;;;;;7.56;54.94;100464.92;116087;1200;23144;-80
2021/04/22 09:13:47;;;;;;;9.10;1.70;;;;;;;7.62;53.96;100471.44;116107;1199;23159;-80
2021/04/22 09:16:18;;;;;;;14.83;1.77;;;;;;;7.65;54.32;100462.20;116070;1200;23150;-80
2021/04/22 09:18:49;;;;;;;14.87;2.00;;;;;;;7.72;54.47;100478.60;116075;1200;23164;-81
2021/04/22 09:21:22;;;;;;;13.30;1.80;;;;;;;7.83;54.47;100467.87;116171;1199;23301;-80
2021/04/22 09:24:00;;;;;;;10.25;1.80;;;;;;;7.91;53.89;100466.36;116219;1199;23188;-81
2021/04/22 09:26:41;;;;;;;14.05;1.95;;;;;;;7.83;53.66;100473.42;115994;1200;23156;-80
2021/04/22 09:29:13;;;;;;;15.03;1.90;;;;;;;7.81;53.63;100471.11;116037;1199;23118;-80
2021/04/22 09:31:42;;;;;;;16.10;2.15;;;;;;;7.84;53.65;100467.41;115985;1199;26042;-81
2021/04/22 09:34:13;;;;;;;15.13;1.98;;;;;;;7.86;54.12;100459.39;116096;1200;26339;-80
2021/04/22 09:36:46;;;;;;;11.53;1.50;;;;;;;7.87;53.62;100463.73;116148;1200;27329;-80
2021/04/22 09:39:17;;;;;;;13.80;2.40;;;;;;;7.84;53.79;100467.41;116200;1199;27332;-79
2021/04/22 09:41:47;;;;;;;14.63;1.90;;;;;;;7.89;53.07;100466.83;116092;1199;23114;-80
2021/04/22 09:44:17;;;;;;;12.40;1.40;;;;;;;7.93;53.15;100466.69;116261;1199;23118;-82
2021/04/22 09:46:48;;;;;;;14.13;1.60;;;;;;;7.97;53.30;100467.32;116424;1199;23212;-81
2021/04/22 09:49:19;;;;;;;12.13;1.50;;;;;;;7.99;52.86;100459.30;116562;1198;23264;-81
2021/04/22 09:51:52;;;;;;;9.20;1.30;;;;;;;7.99;52.92;100459.30;116521;1199;23561;-81
2021/04/22 09:54:23;;;;;;;10.53;1.40;;;;;;;8.03;52.32;100460.72;116525;1199;23160;-81
2021/04/22 09:56:53;;;;;;;11.65;1.30;;;;;;;8.02;52.26;100463.95;116363;1199;26293;-81
2021/04/22 09:59:25;;;;;;;14.85;1.75;;;;;;;7.99;53.07;100445.39;116283;1200;23103;-81
2021/04/22 10:02:02;;;;;;;16.40;2.10;;;;;;;8.04;52.70;100450.38;116324;1199;23260;-80
2021/04/22 10:04:36;;;;;;;7.97;1.50;;;;;;;8.08;52.20;100449.01;116290;1200;23118;-81
2021/04/22 10:07:05;;;;;;;16.05;1.50;;;;;;;8.06;51.38;100459.03;116181;1199;23108;-81
2021/04/22 10:09:36;;;;;;;12.27;1.23;;;;;;;8.03;51.67;100457.16;116306;1200;26425;-82
2021/04/22 10:12:08;;;;;;;14.35;1.65;;;;;;;8.06;52.27;100447.91;116189;1199;23314;-81
2021/04/22 10:14:38;;;;;;;16.50;1.70;;;;;;;8.10;51.65;100471.58;116208;1199;23134;-79
2021/04/22 10:17:15;;;;;;;17.55;1.95;;;;;;;8.14;52.05;100449.18;116311;1200;23249;-81
2021/04/22 10:19:56;;;;;;;11.55;1.50;;;;;;;8.14;52.09;100444.40;116208;1202;23144;-81
2021/04/22 10:22:28;;;;;;;10.07;1.50;;;;;;;8.22;52.66;100438.53;116179;1200;23117;-80
2021/04/22 10:24:58;;;;;;;5.93;1.27;;;;;;;8.31;50.63;100447.73;116132;1199;24822;-81
2021/04/22 10:27:28;;;;;;;13.83;1.73;;;;;;;8.33;51.61;100442.48;116257;1199;26073;-81
2021/04/22 10:29:58;;;;;;;12.60;1.60;;;;;;;8.34;51.86;100441.23;116286;1200;23192;-82
2021/04/22 10:32:28;;;;;;;13.97;1.40;;;;;;;8.37;51.34;100437.55;116366;1200;26653;-82
2021/04/22 10:34:57;;;;;;;10.10;1.40;;;;;;;8.38;50.96;100441.87;116448;1200;23135;-80
2021/04/22 10:37:26;;;;;;;10.50;1.75;;;;;;;8.36;51.36;100438.77;116067;1199;23353;-80
2021/04/22 10:39:58;;;;;;;8.20;1.50;;;;;;;8.37;50.31;100437.55;115768;1199;23618;-80
2021/04/22 10:42:26;;;;;;;13.30;1.50;;;;;;;8.40;50.64;100436.62;115829;1199;23102;-80
2021/04/22 10:44:55;;;;;;;10.30;1.30;;;;;;;8.45;51.10;100444.38;115846;1198;23186;-82
2021/04/22 10:47:24;;;;;;;12.00;1.50;;;;;;;8.50;51.11;100443.00;115974;1199;23463;-79
2021/04/22 10:49:53;;;;;;;11.40;1.60;;;;;;;8.56;50.70;100443.94;115984;1199;25990;-81
2021/04/22 10:52:22;;;;;;;14.70;1.70;;;;;;;8.66;50.40;100435.16;115794;1200;26028;-80
2021/04/22 10:54:52;;;;;;;10.27;1.40;;;;;;;8.73;50.82;100445.97;115813;1200;23125;-80
2021/04/22 10:57:23;;;;;;;15.60;1.97;;;;;;;8.88;51.26;100437.80;116151;1200;23106;-80
2021/04/22 11:00:04;;;;;;;8.15;1.40;;;;;;;9.00;51.03;100442.44;116391;1199;23118;-80
2021/04/22 11:02:43;;;;;;;13.40;1.23;;;;;;;9.01;50.04;100451.58;116363;1199;23178;-81
2021/04/22 11:05:26;;;;;;;9.60;1.70;;;;;;;8.91;50.69;100461.94;116962;1199;23128;-81
2021/04/22 11:08:01;;;;;;;9.17;1.30;;;;;;;8.90;50.29;100452.02;116156;1200;23146;-80
2021/04/22 11:10:42;;;;;;;10.57;1.67;;;;;;;8.95;50.57;100445.85;116220;1199;23635;-80
2021/04/22 11:13:19;;;;;;;10.60;1.57;;;;;;;8.99;49.78;100452.05;116029;1199;23255;-80
2021/04/22 11:16:00;;;;;;;11.00;1.50;;;;;;;8.99;49.46;100463.18;116122;1200;23115;-81
2021/04/22 11:18:41;;;;;;;11.93;2.10;;;;;;;9.00;50.14;100442.44;116172;1199;23228;-81
2021/04/22 11:21:24;;;;;;;17.20;1.63;;;;;;;8.98;49.93;100456.05;116048;1200;23308;-81
2021/04/22 11:23:55;;;;;;;13.65;1.50;;;;;;;9.02;50.22;100467.06;116236;1199;23156;-81
2021/04/22 11:26:27;;;;;;;13.75;1.45;;;;;;;9.08;49.92;100463.20;116368;1200;23566;-81
2021/04/22 11:29:09;;;;;;;12.97;1.90;;;;;;;9.18;50.24;100456.39;116337;1199;23157;-81
2021/04/22 11:31:47;;;;;;;13.50;1.20;;;;;;;9.24;49.92;100456.53;116249;1199;23230;-81